Time;durP1;ratioP1;P1;durP2;ratioP2;P2;SDS_P1;SDS_P2;PMS_P1;PMS_P2;Temp;Humidity;BMP_temperature;BMP_pressure;BME280_temperature;BME280_humidity;BME280_pressure;Samples;Min_cycle;Max_cycle;Signal;HPM_P1;HPM_P2
2023/10/05 00:00:38;;;;;;;;;13.00;9.75;;;;;17.49;53.87;102039.47;5114539;27;46777;-78
2023/10/05 00:03:05;;;;;;;;;10.50;9.25;;;;;17.46;54.38;102035.16;5109395;27;45606;-78
2023/10/05 00:05:34;;;;;;;;;11.75;10.25;;;;;17.48;54.49;102046.56;5113435;27;45339;-78
2023/10/05 00:07:59;;;;;;;;;12.25;9.50;;;;;17.46;54.60;102049.25;5113548;27;45242;-76
2023/10/05 00:10:24;;;;;;;;;12.75;10.50;;;;;17.43;54.57;102045.84;5102871;27;46250;-77
2023/10/05 00:12:50;;;;;;;;;10.25;8.00;;;;;17.43;54.57;102035.28;5112406;27;45504;-77
2023/10/05 00:15:17;;;;;;;;;13.75;9.25;;;;;17.42;54.63;102030.88;5101459;27;45770;-76
2023/10/05 00:17:43;;;;;;;;;13.00;10.00;;;;;17.40;54.95;102024.78;5119812;27;45483;-77
2023/10/05 00:20:54;;;;;;;;;12.00;9.00;;;;;17.39;54.99;102023.06;5091924;27;47008;-79
2023/10/05 00:22:57;;;;;;;;;18.75;9.25;;;;;17.34;55.17;102028.50;5100283;27;45830;-76
2023/10/05 00:25:26;;;;;;;;;9.75;8.00;;;;;17.35;55.30;102038.19;5096987;27;45541;-76
2023/10/05 00:27:53;;;;;;;;;15.50;9.25;;;;;17.35;55.13;102039.94;5113231;27;45665;-77
2023/10/05 00:30:19;;;;;;;;;10.00;7.00;;;;;17.33;55.46;102042.66;5112096;27;46426;-77
2023/10/05 00:32:49;;;;;;;;;11.00;9.00;;;;;17.33;55.78;102042.66;5108379;27;45473;-77
2023/10/05 00:35:20;;;;;;;;;13.75;11.00;;;;;17.35;55.36;102047.88;5129780;27;45343;-78
2023/10/05 00:37:48;;;;;;;;;24.75;11.00;;;;;17.33;55.52;102039.16;5089550;27;45604;-77
2023/10/05 00:40:30;;;;;;;;;19.25;11.50;;;;;17.34;55.63;102047.03;5114016;27;46229;-76
2023/10/05 00:43:02;;;;;;;;;10.75;8.50;;;;;17.33;55.57;102047.09;5106059;27;45369;-75
2023/10/05 00:45:31;;;;;;;;;13.00;9.25;;;;;17.32;55.63;102046.22;5117690;27;45673;-76
2023/10/05 00:48:08;;;;;;;;;10.25;9.25;;;;;17.30;55.55;102040.13;5109726;27;45456;-77
2023/10/05 00:50:34;;;;;;;;;13.50;10.75;;;;;17.30;55.64;102036.59;5096401;27;47282;-76
2023/10/05 00:52:59;;;;;;;;;9.00;7.00;;;;;17.26;55.97;102030.53;5109109;27;45215;-77
2023/10/05 00:55:25;;;;;;;;;11.00;7.00;;;;;17.28;56.09;102034.00;5109815;27;45986;-78
2023/10/05 00:57:51;;;;;;;;;13.25;7.00;;;;;17.27;56.00;102024.34;5104192;27;45264;-76
2023/10/05 01:00:27;;;;;;;;;9.25;6.75;;;;;17.23;55.96;102020.94;5102767;27;48030;-78
2023/10/05 01:05:51;;;;;;;;;8.25;7.00;;;;;17.24;56.05;102035.03;5100255;27;45539;-77
2023/10/05 01:08:23;;;;;;;;;9.25;7.25;;;;;17.24;56.13;102042.97;5116649;27;45561;-78
2023/10/05 01:10:49;;;;;;;;;9.00;7.50;;;;;17.24;55.87;102042.97;5094141;27;46878;-76
2023/10/05 01:13:29;;;;;;;;;9.00;6.00;;;;;17.23;56.11;102050.03;5105957;27;46384;-78
2023/10/05 01:15:55;;;;;;;;;9.75;8.00;;;;;17.20;56.05;102044.00;5110017;27;45383;-77
2023/10/05 01:18:25;;;;;;;;;8.50;7.00;;;;;17.22;55.97;102050.94;5119846;27;46674;-75
2023/10/05 01:20:50;;;;;;;;;9.00;7.25;;;;;17.22;56.14;102053.59;5109931;27;45374;-76
2023/10/05 01:23:15;;;;;;;;;5.75;5.75;;;;;17.15;56.53;102036.19;5117390;27;64726;-76
2023/10/05 01:25:41;;;;;;;;;8.50;7.00;;;;;17.18;56.20;102028.16;5103559;27;45419;-77
2023/10/05 01:28:07;;;;;;;;;7.00;5.25;;;;;17.21;56.12;102036.00;5114105;27;63015;-75
2023/10/05 01:30:37;;;;;;;;;9.25;6.75;;;;;17.20;56.24;102033.41;5119751;27;45566;-76
2023/10/05 01:33:03;;;;;;;;;8.50;7.00;;;;;17.20;56.28;102038.72;5118075;27;45808;-76
2023/10/05 01:35:29;;;;;;;;;9.75;6.50;;;;;17.19;56.43;102029.91;5111687;27;45469;-77
2023/10/05 01:37:54;;;;;;;;;7.00;6.25;;;;;17.19;56.01;102021.97;5112286;27;45538;-78
2023/10/05 01:42:47;;;;;;;;;7.00;5.25;;;;;17.16;55.96;102013.28;5119038;27;45351;-79
2023/10/05 01:45:17;;;;;;;;;12.25;6.25;;;;;17.16;56.00;102013.28;5104419;27;45437;-77
2023/10/05 01:47:45;;;;;;;;;3.75;1.00;;;;;17.16;56.29;102008.00;5112766;27;45968;-77
2023/10/05 01:50:27;;;;;;;;;5.50;5.25;;;;;17.17;56.06;102013.19;5118926;27;45435;-76
2023/10/05 01:53:36;;;;;;;;;5.00;3.00;;;;;17.19;55.94;102014.03;5109135;27;45314;-79
2023/10/05 01:55:45;;;;;;;;;9.25;8.25;;;;;17.19;56.12;102007.88;5110896;27;45475;-77
2023/10/05 01:58:13;;;;;;;;;10.50;6.00;;;;;17.17;56.22;102017.63;5094727;27;45726;-78
2023/10/05 02:00:40;;;;;;;;;15.00;8.25;;;;;17.13;56.22;102022.16;5112633;27;45468;-78
2023/10/05 02:03:11;;;;;;;;;9.50;7.00;;;;;17.08;56.12;102017.03;5091953;27;45468;-78
2023/10/05 02:05:37;;;;;;;;;10.00;7.75;;;;;17.06;56.27;102015.34;5102664;27;45492;-78
2023/10/05 02:08:03;;;;;;;;;11.00;7.00;;;;;17.03;56.58;102015.47;5096525;27;67021;-78
2023/10/05 02:10:32;;;;;;;;;9.00;8.00;;;;;17.04;56.67;102014.56;5104179;27;45398;-78
2023/10/05 02:13:00;;;;;;;;;10.25;7.00;;;;;17.07;56.88;102012.66;5116927;27;45448;-78
2023/10/05 02:15:29;;;;;;;;;12.00;8.00;;;;;17.10;56.79;102006.41;5098222;27;45492;-78
2023/10/05 02:17:56;;;;;;;;;10.25;7.75;;;;;17.10;56.61;102002.91;5107863;27;45440;-78
2023/10/05 02:20:38;;;;;;;;;7.75;7.00;;;;;17.13;56.56;101997.50;5105200;27;45484;-79
2023/10/05 02:23:24;;;;;;;;;12.25;6.00;;;;;17.09;56.39;101988.81;5109009;27;45508;-78
2023/10/05 02:25:57;;;;;;;;;4.00;3.00;;;;;17.15;55.65;102000.97;5111133;27;46064;-76
2023/10/05 02:28:25;;;;;;;;;4.25;4.25;;;;;17.16;55.54;101992.13;5096819;27;46983;-77
2023/10/05 02:30:53;;;;;;;;;3.00;3.00;;;;;17.20;55.35;102002.53;5135579;27;47271;-77
2023/10/05 02:33:21;;;;;;;;;3.50;2.00;;;;;17.21;55.04;102004.28;5119972;27;45686;-79
2023/10/05 02:35:48;;;;;;;;;1.75;1.75;;;;;17.25;55.06;102005.88;5105446;27;45349;-78
2023/10/05 02:38:18;;;;;;;;;3.00;1.00;;;;;17.23;54.83;101991.84;5114165;27;45429;-78
2023/10/05 02:40:54;;;;;;;;;4.00;3.25;;;;;17.25;54.97;101984.72;5119226;27;45836;-78
2023/10/05 02:43:26;;;;;;;;;4.25;2.00;;;;;17.25;54.73;101997.94;5116689;27;46586;-78
2023/10/05 02:45:55;;;;;;;;;7.75;4.00;;;;;17.27;54.41;102000.53;5115529;27;45433;-78
2023/10/05 02:48:21;;;;;;;;;4.50;3.00;;;;;17.23;54.57;101991.84;5111319;27;45596;-78
2023/10/05 02:50:51;;;;;;;;;4.75;1.75;;;;;17.23;54.59;101991.84;5113828;27;47204;-76
2023/10/05 02:53:18;;;;;;;;;2.25;1.75;;;;;17.23;54.57;101991.84;5102115;27;45837;-77
2023/10/05 02:55:49;;;;;;;;;7.75;3.00;;;;;17.25;54.47;102005.03;5118946;27;45414;-77
2023/10/05 02:58:14;;;;;;;;;2.50;2.50;;;;;17.25;54.52;102000.59;5118103;27;45474;-77
2023/10/05 03:00:40;;;;;;;;;4.25;2.75;;;;;17.26;54.52;102001.44;5118399;27;71508;-77
2023/10/05 03:03:07;;;;;;;;;4.00;4.00;;;;;17.21;54.32;101993.69;5114856;27;62676;-77
2023/10/05 03:05:35;;;;;;;;;2.75;1.75;;;;;17.17;54.41;101992.03;5101887;27;45374;-77
2023/10/05 03:08:00;;;;;;;;;3.00;3.00;;;;;17.19;54.33;101995.53;5112799;27;45421;-77
2023/10/05 03:10:26;;;;;;;;;2.25;2.00;;;;;17.17;54.53;101993.84;5093127;27;46953;-78
2023/10/05 03:12:51;;;;;;;;;2.75;2.00;;;;;17.20;54.59;101993.72;5116970;27;45466;-78
2023/10/05 03:15:22;;;;;;;;;3.75;2.50;;;;;17.20;54.38;101993.72;5114221;27;58172;-79
2023/10/05 03:17:50;;;;;;;;;4.50;2.75;;;;;17.15;54.33;101980.66;5097250;27;45477;-76
2023/10/05 03:20:18;;;;;;;;;3.00;2.25;;;;;17.14;54.53;101984.25;5113327;27;46214;-77
2023/10/05 03:22:46;;;;;;;;;2.50;1.75;;;;;17.15;54.38;101979.81;5102895;27;45460;-77
2023/10/05 03:25:14;;;;;;;;;3.75;3.00;;;;;17.14;54.48;101984.25;5117937;27;45657;-77
2023/10/05 03:27:40;;;;;;;;;3.00;2.75;;;;;17.12;54.43;101983.41;5114513;27;45642;-77
2023/10/05 03:30:06;;;;;;;;;6.00;3.00;;;;;17.10;54.60;101987.88;5109476;27;45585;-77
2023/10/05 03:32:32;;;;;;;;;1.00;1.00;;;;;17.08;54.78;101992.38;5105121;27;45828;-77
2023/10/05 03:34:58;;;;;;;;;6.00;1.00;;;;;17.08;54.72;101997.66;5118912;27;45416;-77
2023/10/05 03:37:24;;;;;;;;;4.00;2.00;;;;;17.07;54.55;101994.16;5107058;27;45592;-77
2023/10/05 03:40:08;;;;;;;;;4.25;2.25;;;;;17.05;54.89;101982.78;5095599;27;48206;-77
2023/10/05 03:42:34;;;;;;;;;5.75;2.00;;;;;17.04;54.80;101980.19;5108594;27;45337;-77
2023/10/05 03:45:02;;;;;;;;;3.00;2.00;;;;;17.03;54.88;101986.38;5111244;27;45478;-77
2023/10/05 03:47:28;;;;;;;;;3.75;1.75;;;;;17.00;54.89;101984.69;5118032;27;45948;-77
2023/10/05 03:49:56;;;;;;;;;3.75;3.00;;;;;16.97;54.53;101990.09;5106211;27;47038;-77
2023/10/05 03:52:29;;;;;;;;;3.25;1.50;;;;;16.97;54.79;101995.38;5116392;27;45747;-76
2023/10/05 03:55:00;;;;;;;;;6.75;3.00;;;;;16.93;54.71;101998.16;5115394;27;45475;-76
2023/10/05 03:57:30;;;;;;;;;5.25;3.00;;;;;16.93;55.25;102009.63;5112600;27;45396;-76
2023/10/05 03:59:57;;;;;;;;;3.00;2.00;;;;;16.86;54.87;102005.47;5118969;27;45381;-76
2023/10/05 04:02:24;;;;;;;;;4.50;2.00;;;;;16.82;54.84;102009.06;5110924;27;45237;-76
2023/10/05 04:04:50;;;;;;;;;3.50;2.75;;;;;16.76;55.09;102014.56;5118393;27;45279;-76
2023/10/05 04:07:16;;;;;;;;;4.75;2.50;;;;;16.72;55.56;102008.50;5109355;27;45301;-76
2023/10/05 04:09:41;;;;;;;;;8.00;4.00;;;;;16.72;55.68;102007.66;5117714;27;45399;-76
2023/10/05 04:12:10;;;;;;;;;7.00;4.00;;;;;16.63;55.81;102004.38;5112518;27;67697;-76
2023/10/05 04:14:38;;;;;;;;;7.00;3.25;;;;;16.57;56.01;102001.06;5109954;27;45560;-75
2023/10/05 04:17:07;;;;;;;;;5.25;4.50;;;;;16.50;56.12;101998.63;5106243;27;45424;-75
2023/10/05 04:19:33;;;;;;;;;7.00;4.50;;;;;16.46;56.43;102004.91;5102095;27;45371;-77
2023/10/05 04:21:59;;;;;;;;;7.25;3.50;;;;;16.37;56.59;101999.06;5119136;27;45296;-77
2023/10/05 04:24:26;;;;;;;;;4.75;3.50;;;;;16.26;56.52;101994.97;5111212;27;45313;-77
2023/10/05 04:26:52;;;;;;;;;5.00;3.50;;;;;16.28;56.49;102016.06;5117808;27;45354;-78
2023/10/05 04:29:20;;;;;;;;;4.50;4.00;;;;;16.21;56.74;102018.00;5115673;27;45515;-77
2023/10/05 04:31:48;;;;;;;;;6.00;4.75;;;;;16.16;57.07;102027.00;5086487;27;45362;-77
2023/10/05 04:34:20;;;;;;;;;13.00;5.00;;;;;16.11;57.08;102027.13;5118235;27;45481;-78
2023/10/05 04:36:48;;;;;;;;;4.75;4.75;;;;;16.04;56.96;102023.81;5110844;27;45539;-77
2023/10/05 04:39:21;;;;;;;;;8.00;4.50;;;;;15.98;57.57;102026.63;5115348;27;45295;-77
2023/10/05 04:41:49;;;;;;;;;6.50;2.75;;;;;15.87;57.31;102026.91;5118050;27;45370;-77
2023/10/05 04:44:15;;;;;;;;;5.00;3.00;;;;;15.84;57.32;102023.50;5113795;27;45343;-77
2023/10/05 04:46:47;;;;;;;;;7.75;4.00;;;;;15.78;57.82;102019.28;5104394;27;45298;-78
2023/10/05 04:49:16;;;;;;;;;8.50;5.00;;;;;15.70;57.67;102014.16;5119466;27;46986;-77
2023/10/05 04:51:43;;;;;;;;;3.75;2.75;;;;;15.68;58.36;102009.84;5101101;27;45785;-75
2023/10/05 04:54:12;;;;;;;;;6.25;2.75;;;;;15.65;58.23;102007.28;5121451;27;45421;-74
2023/10/05 05:07:08;;;;;;;;;5.75;3.50;;;;;15.64;58.92;102002.94;5106220;27;45546;-78
2023/10/05 05:09:38;;;;;;;;;2.75;2.75;;;;;15.63;58.39;101999.41;5104041;27;47288;-78
2023/10/05 05:12:16;;;;;;;;;7.00;4.75;;;;;15.63;58.68;102003.81;5095127;27;46286;-75
2023/10/05 05:14:44;;;;;;;;;3.75;3.75;;;;;15.62;58.57;102002.13;5106890;27;45515;-78
2023/10/05 05:17:21;;;;;;;;;5.75;2.50;;;;;15.61;58.40;102001.22;5093549;27;45638;-78
2023/10/05 05:19:47;;;;;;;;;7.50;4.25;;;;;15.57;58.31;101995.16;5124181;27;47597;-77
2023/10/05 05:22:13;;;;;;;;;5.00;3.50;;;;;15.60;58.70;102003.91;5107233;27;63419;-76
2023/10/05 05:24:39;;;;;;;;;6.25;3.00;;;;;15.59;58.93;102002.19;5111505;27;45749;-76
2023/10/05 05:29:44;;;;;;;;;5.25;3.75;;;;;15.60;58.52;101998.63;5115308;27;46045;-76
2023/10/05 05:32:15;;;;;;;;;8.00;4.25;;;;;15.59;58.80;101999.56;5106937;27;45811;-77
2023/10/05 05:34:42;;;;;;;;;5.75;2.75;;;;;15.59;58.57;101997.75;5118744;27;46855;-77
2023/10/05 05:37:08;;;;;;;;;4.75;4.00;;;;;15.60;58.64;101996.88;5120555;27;45679;-77
2023/10/05 05:39:39;;;;;;;;;7.00;3.50;;;;;15.60;58.98;101993.34;5117107;27;46420;-72
2023/10/05 05:42:07;;;;;;;;;4.50;3.25;;;;;15.61;58.78;102000.38;5119057;27;45795;-72
2023/10/05 05:44:35;;;;;;;;;6.50;3.25;;;;;15.62;58.86;102000.31;5106698;27;45311;-72
2023/10/05 05:47:09;;;;;;;;;4.25;3.50;;;;;15.62;58.73;101996.84;5117903;27;45488;-74
2023/10/05 05:49:34;;;;;;;;;7.25;5.00;;;;;15.61;58.76;102008.28;5115953;27;47523;-72
2023/10/05 05:51:59;;;;;;;;;8.25;5.00;;;;;15.59;58.66;102018.88;5117907;27;71970;-73
2023/10/05 05:54:29;;;;;;;;;9.50;6.25;;;;;15.60;58.57;102019.72;5119890;27;49506;-70
2023/10/05 05:56:56;;;;;;;;;7.75;7.00;;;;;15.60;58.68;102027.66;5123597;27;45361;-72
2023/10/05 05:59:22;;;;;;;;;8.25;4.50;;;;;15.60;58.78;102020.63;5117221;27;46584;-73
2023/10/05 06:01:50;;;;;;;;;9.75;6.00;;;;;15.57;58.57;102020.69;5113243;27;45280;-72
2023/10/05 06:04:15;;;;;;;;;9.50;5.50;;;;;15.53;58.89;102025.19;5086941;27;45664;-72
2023/10/05 06:06:42;;;;;;;;;6.75;4.00;;;;;15.53;59.19;102030.47;5120118;27;45653;-73
2023/10/05 06:09:08;;;;;;;;;6.25;5.75;;;;;15.52;58.79;102035.78;5100580;27;47055;-72
2023/10/05 06:11:34;;;;;;;;;10.50;6.00;;;;;15.53;59.08;102042.81;5111734;27;72976;-74
2023/10/05 06:14:00;;;;;;;;;8.00;5.25;;;;;15.53;59.39;102040.16;5088817;27;45368;-73
2023/10/05 06:16:28;;;;;;;;;7.25;5.75;;;;;15.51;59.27;102042.84;5107694;27;45389;-73
2023/10/05 06:18:54;;;;;;;;;5.00;3.25;;;;;15.52;59.09;102039.28;5112666;27;45658;-73
2023/10/05 06:21:20;;;;;;;;;11.75;6.75;;;;;15.55;59.22;102051.53;5112866;27;45913;-75
2023/10/05 06:23:45;;;;;;;;;8.25;6.00;;;;;15.56;59.29;102053.25;5101092;27;45244;-72
2023/10/05 06:26:11;;;;;;;;;5.00;4.50;;;;;15.55;59.32;102051.53;5120816;27;45449;-73
2023/10/05 06:28:37;;;;;;;;;5.75;5.50;;;;;15.59;59.20;102050.53;5084792;27;47484;-75
2023/10/05 06:31:03;;;;;;;;;10.00;4.75;;;;;15.58;59.09;102048.78;5106226;27;45274;-76
2023/10/05 06:33:28;;;;;;;;;8.00;5.00;;;;;15.60;59.16;102046.13;5116208;27;45839;-75
2023/10/05 06:35:54;;;;;;;;;11.00;4.50;;;;;15.54;58.95;102039.25;5120827;27;45587;-77
2023/10/05 06:38:20;;;;;;;;;7.25;6.50;;;;;15.54;59.67;102040.09;5131918;27;46734;-75
2023/10/05 06:40:46;;;;;;;;;9.00;8.00;;;;;15.53;59.76;102033.09;5115828;27;45552;-80
2023/10/05 06:43:11;;;;;;;;;4.50;4.00;;;;;15.56;59.91;102034.78;5121491;27;45421;-74
2023/10/05 06:45:43;;;;;;;;;8.00;6.00;;;;;15.57;59.56;102042.66;5111648;27;55474;-76
2023/10/05 06:48:08;;;;;;;;;6.50;6.25;;;;;15.55;59.56;102041.84;5121009;27;46706;-78
2023/10/05 06:50:34;;;;;;;;;8.50;7.00;;;;;15.60;59.42;102052.28;5114157;27;65739;-76
2023/10/05 06:53:00;;;;;;;;;11.50;6.50;;;;;15.65;59.53;102053.03;5114541;27;45967;-79
2023/10/05 06:55:25;;;;;;;;;10.50;6.50;;;;;15.69;59.78;102059.94;5112242;27;45632;-80
2023/10/05 06:57:50;;;;;;;;;9.25;7.75;;;;;15.76;59.61;102058.03;5122049;27;45486;-78
2023/10/05 07:00:20;;;;;;;;;14.50;12.25;;;;;15.82;59.61;102065.78;5112055;27;45491;-75
2023/10/05 07:02:58;;;;;;;;;12.00;5.50;;;;;15.85;59.61;102054.28;5121372;27;45450;-73
2023/10/05 07:05:24;;;;;;;;;11.75;8.25;;;;;15.86;59.56;102056.84;5119563;27;45433;-73
2023/10/05 07:07:49;;;;;;;;;11.00;6.75;;;;;15.88;59.65;102065.63;5117286;27;45875;-74
2023/10/05 07:10:15;;;;;;;;;9.50;7.50;;;;;15.89;59.77;102058.56;5112099;27;71916;-71
2023/10/05 07:12:42;;;;;;;;;15.25;7.75;;;;;15.89;59.50;102069.97;5117267;27;45441;-74
2023/10/05 07:15:08;;;;;;;;;13.50;8.50;;;;;15.89;59.47;102072.63;5117631;27;45574;-67
2023/10/05 07:17:33;;;;;;;;;10.00;7.25;;;;;15.86;59.24;102064.78;5119577;27;46208;-77
2023/10/05 07:19:59;;;;;;;;;11.25;8.25;;;;;15.88;59.64;102077.94;5119362;27;45519;-77
2023/10/05 07:22:24;;;;;;;;;8.75;5.50;;;;;15.91;59.80;102086.63;5118563;27;45546;-76
2023/10/05 07:24:50;;;;;;;;;10.00;7.50;;;;;15.95;59.74;102084.78;5125874;27;47372;-77
2023/10/05 07:27:16;;;;;;;;;8.50;7.25;;;;;15.98;59.61;102076.78;5129443;27;46085;-75
2023/10/05 07:29:45;;;;;;;;;5.50;5.50;;;;;16.04;59.72;102073.09;5121052;27;45234;-76
2023/10/05 07:32:14;;;;;;;;;13.25;7.50;;;;;16.12;59.91;102057.91;5121141;27;45433;-76
2023/10/05 07:34:40;;;;;;;;;12.00;8.50;;;;;16.25;59.71;102067.19;5120385;27;56923;-77
2023/10/05 07:37:10;;;;;;;;;10.75;6.25;;;;;16.37;59.36;102065.09;5123791;27;46412;-76
2023/10/05 07:39:35;;;;;;;;;11.00;7.25;;;;;16.53;59.48;102066.38;5124683;27;45531;-76
2023/10/05 07:42:00;;;;;;;;;11.00;9.00;;;;;16.68;59.18;102073.84;5130744;27;45444;-77
2023/10/05 07:44:27;;;;;;;;;11.00;7.50;;;;;16.86;58.62;102082.13;5122201;27;49188;-75
2023/10/05 07:46:52;;;;;;;;;8.50;7.25;;;;;17.01;58.50;102068.41;5120115;27;45471;-76
2023/10/05 07:49:18;;;;;;;;;10.00;6.50;;;;;17.18;58.43;102093.44;5122777;27;45495;-76
2023/10/05 07:51:44;;;;;;;;;13.75;8.75;;;;;17.28;58.23;102105.44;5119299;27;64584;-76
2023/10/05 07:54:09;;;;;;;;;7.75;6.25;;;;;17.36;57.41;102092.81;5117776;27;46159;-76
2023/10/05 07:56:35;;;;;;;;;6.50;5.25;;;;;17.36;57.30;102079.59;5115880;27;45642;-76
2023/10/05 07:59:00;;;;;;;;;4.00;3.50;;;;;17.46;57.26;102088.09;5125165;27;45491;-76
2023/10/05 08:01:26;;;;;;;;;5.75;3.75;;;;;17.50;56.77;102084.41;5117996;27;45404;-76
2023/10/05 08:03:51;;;;;;;;;6.75;4.00;;;;;17.53;57.00;102086.09;5123183;27;50112;-77
2023/10/05 08:06:17;;;;;;;;;5.50;4.00;;;;;17.61;56.76;102084.91;5117355;27;45426;-77
2023/10/05 08:08:43;;;;;;;;;7.50;5.00;;;;;17.71;56.62;102100.50;5106031;27;45293;-76
2023/10/05 08:11:12;;;;;;;;;4.00;3.25;;;;;17.79;56.25;102098.41;5121774;27;45443;-75
2023/10/05 08:13:37;;;;;;;;;6.25;5.00;;;;;17.86;56.03;102097.31;5105508;27;45586;-75
2023/10/05 08:16:03;;;;;;;;;24.75;22.50;;;;;17.93;55.60;102111.19;5109189;27;45355;-75
2023/10/05 08:18:29;;;;;;;;;10.75;6.25;;;;;17.99;56.03;102121.59;5121325;27;45310;-75
2023/10/05 08:20:54;;;;;;;;;8.25;6.00;;;;;18.00;55.78;102118.00;5100773;27;45339;-75
2023/10/05 08:23:19;;;;;;;;;6.50;4.50;;;;;18.01;55.51;102130.34;5118910;27;68210;-75
2023/10/05 08:25:46;;;;;;;;;8.25;6.00;;;;;17.97;55.80;102136.66;5122447;27;46324;-75
2023/10/05 08:28:11;;;;;;;;;10.00;5.25;;;;;17.91;55.60;102143.03;5120193;27;45305;-76
2023/10/05 08:30:45;;;;;;;;;9.50;5.00;;;;;17.83;55.41;102148.59;5120676;27;45503;-75
2023/10/05 08:33:15;;;;;;;;;6.25;5.00;;;;;17.83;55.46;102161.81;5106143;27;45639;-75
2023/10/05 08:35:41;;;;;;;;;6.00;4.25;;;;;17.84;54.98;102168.81;5122082;27;46350;-76
2023/10/05 08:38:15;;;;;;;;;8.00;6.00;;;;;17.89;55.79;102171.38;5123316;27;45348;-76
2023/10/05 08:40:42;;;;;;;;;7.00;5.00;;;;;17.90;55.34;102164.28;5121534;27;45476;-77
2023/10/05 08:43:09;;;;;;;;;7.75;6.50;;;;;17.97;54.86;102144.59;5137455;27;45786;-76
2023/10/05 08:46:01;;;;;;;;;9.50;5.75;;;;;17.99;54.94;102148.09;5104969;27;48132;-76
2023/10/05 08:50:56;;;;;;;;;8.50;5.75;;;;;17.98;54.98;102154.28;5122964;27;45540;-76
2023/10/05 08:53:22;;;;;;;;;9.75;6.00;;;;;17.99;54.85;102161.31;5105136;27;45496;-76
2023/10/05 08:55:51;;;;;;;;;7.75;5.75;;;;;17.99;55.10;102164.84;5111895;27;45460;-76
2023/10/05 08:58:18;;;;;;;;;7.75;5.25;;;;;18.02;54.81;102177.97;5098377;27;45689;-77
2023/10/05 09:00:47;;;;;;;;;8.50;3.25;;;;;18.00;54.68;102177.13;5105568;27;45290;-76
2023/10/05 09:03:35;;;;;;;;;7.00;5.00;;;;;17.92;54.80;102171.25;5118459;27;45238;-76
2023/10/05 09:06:19;;;;;;;;;7.25;5.75;;;;;17.85;54.73;102169.72;5122188;27;45405;-77
2023/10/05 09:08:53;;;;;;;;;7.00;4.75;;;;;17.82;54.98;102164.53;5122012;27;45488;-76
2023/10/05 09:11:27;;;;;;;;;5.25;4.00;;;;;17.80;54.97;102161.06;5121257;27;45424;-76
2023/10/05 09:13:53;;;;;;;;;7.75;3.50;;;;;17.84;54.74;102157.38;5105081;27;45453;-76
2023/10/05 09:16:23;;;;;;;;;4.25;4.25;;;;;17.93;54.86;102143.84;5122333;27;45290;-76
2023/10/05 09:18:49;;;;;;;;;8.50;4.25;;;;;18.04;54.69;102146.09;5119018;27;45224;-76
2023/10/05 09:21:19;;;;;;;;;8.25;6.00;;;;;18.18;54.89;102145.63;5112307;27;45397;-76
2023/10/05 09:23:44;;;;;;;;;7.25;5.75;;;;;18.36;54.46;102141.41;5090328;27;45469;-76
2023/10/05 09:26:33;;;;;;;;;7.00;4.75;;;;;18.51;54.47;102146.16;5106731;27;47372;-77
2023/10/05 09:29:20;;;;;;;;;10.50;4.00;;;;;18.66;53.69;102167.69;5136302;27;45413;-77
2023/10/05 09:31:46;;;;;;;;;6.50;4.00;;;;;18.74;53.54;102163.84;5090099;27;45275;-77
2023/10/05 09:34:14;;;;;;;;;7.75;3.50;;;;;18.87;53.81;102158.09;5119867;27;45175;-77
2023/10/05 09:36:39;;;;;;;;;7.00;5.00;;;;;18.96;53.65;102163.03;5120076;27;45684;-76
2023/10/05 09:39:10;;;;;;;;;5.75;4.75;;;;;19.03;52.71;102164.50;5121469;27;45388;-76
2023/10/05 09:41:36;;;;;;;;;5.00;4.00;;;;;19.05;51.96;102154.72;5101950;27;45472;-77
2023/10/05 09:44:07;;;;;;;;;4.00;3.00;;;;;19.15;51.35;102158.72;5123256;27;45353;-77
2023/10/05 09:46:34;;;;;;;;;6.25;3.75;;;;;19.23;51.13;102155.78;5122140;27;46466;-77
2023/10/05 09:49:01;;;;;;;;;2.75;1.75;;;;;19.29;50.46;102159.97;5121878;27;45639;-77
2023/10/05 09:51:27;;;;;;;;;1.00;1.00;;;;;19.31;49.72;102161.59;5121766;27;45314;-77
2023/10/05 09:53:54;;;;;;;;;3.00;1.00;;;;;19.35;49.16;102167.66;5120700;27;66224;-76
2023/10/05 09:56:20;;;;;;;;;2.50;2.50;;;;;19.40;49.74;102167.47;5119585;27;45514;-76
2023/10/05 09:58:46;;;;;;;;;4.75;3.00;;;;;19.46;49.16;102161.91;5100926;27;45369;-76
2023/10/05 10:01:14;;;;;;;;;6.75;3.00;;;;;19.51;49.29;102157.25;5103633;27;45458;-76
2023/10/05 10:03:45;;;;;;;;;3.75;2.00;;;;;19.50;48.88;102158.22;5117842;27;45429;-77
2023/10/05 10:06:18;;;;;;;;;5.25;2.50;;;;;19.51;48.78;102165.22;5119576;27;45460;-77
2023/10/05 10:08:57;;;;;;;;;2.00;2.00;;;;;19.50;48.79;102147.59;5108992;27;45260;-77
2023/10/05 10:11:27;;;;;;;;;2.00;2.00;;;;;19.50;48.60;102124.53;5111372;27;45351;-77
2023/10/05 10:14:05;;;;;;;;;2.00;2.00;;;;;19.56;48.87;102135.84;5120470;27;45348;-77
2023/10/05 10:16:34;;;;;;;;;2.25;2.25;;;;;19.63;49.00;102127.53;5114431;27;46342;-77
2023/10/05 10:19:07;;;;;;;;;4.00;3.50;;;;;19.73;48.49;102120.94;5119065;27;45249;-76
2023/10/05 10:21:46;;;;;;;;;6.50;3.25;;;;;19.85;48.01;102126.66;5121558;27;45382;-77
2023/10/05 10:24:14;;;;;;;;;2.00;2.00;;;;;19.97;48.15;102138.53;5104293;27;45797;-76
2023/10/05 10:26:43;;;;;;;;;4.50;2.00;;;;;20.05;48.02;102139.06;5119370;27;47586;-76
2023/10/05 10:29:11;;;;;;;;;6.25;3.00;;;;;20.10;47.64;102123.78;5120182;27;45318;-76
2023/10/05 10:31:42;;;;;;;;;4.25;3.00;;;;;20.14;47.34;102103.22;5119239;27;45385;-76
2023/10/05 10:34:19;;;;;;;;;3.00;2.00;;;;;20.18;47.29;102110.97;5121019;27;45454;-77
2023/10/05 10:36:52;;;;;;;;;3.50;2.75;;;;;20.16;47.33;102109.34;5118875;27;45634;-77
2023/10/05 10:39:27;;;;;;;;;2.00;2.00;;;;;20.19;46.97;102123.34;5121221;27;45270;-76
2023/10/05 10:42:19;;;;;;;;;5.00;3.00;;;;;20.17;46.95;102119.91;5108581;27;45384;-76
2023/10/05 10:44:57;;;;;;;;;4.00;2.00;;;;;20.05;46.89;102120.44;5123604;27;45511;-78
2023/10/05 10:47:23;;;;;;;;;10.50;4.00;;;;;19.96;47.97;102136.81;5121216;27;46126;-76
2023/10/05 10:50:15;;;;;;;;;4.75;4.25;;;;;19.81;47.10;102135.66;5119359;27;45723;-77
2023/10/05 10:52:42;;;;;;;;;9.25;4.00;;;;;19.70;47.63;102139.63;5115300;27;45352;-77
2023/10/05 10:55:14;;;;;;;;;8.75;6.25;;;;;19.61;47.41;102144.47;5109290;27;45565;-75
2023/10/05 10:57:47;;;;;;;;;25.25;19.75;;;;;19.53;47.62;102129.72;5105008;27;46344;-77
2023/10/05 11:02:57;;;;;;;;;7.00;5.25;;;;;19.39;47.45;102139.19;5118291;27;45426;-77
2023/10/05 11:05:37;;;;;;;;;5.25;3.75;;;;;19.35;47.51;102128.72;5119844;27;46209;-76
2023/10/05 11:08:07;;;;;;;;;5.25;4.75;;;;;19.32;47.58;102134.16;5114557;27;45486;-76
2023/10/05 11:10:32;;;;;;;;;5.00;5.00;;;;;19.26;47.59;102126.44;5114520;27;45330;-76
2023/10/05 11:13:28;;;;;;;;;6.25;4.00;;;;;19.33;47.60;102145.63;5119834;27;59979;-77
2023/10/05 11:16:01;;;;;;;;;4.25;3.00;;;;;19.32;47.40;102133.28;5123161;27;45221;-76
2023/10/05 11:18:31;;;;;;;;;5.75;5.75;;;;;19.31;47.32;102127.09;5138913;27;47306;-77
2023/10/05 11:21:23;;;;;;;;;9.25;4.00;;;;;19.32;47.38;102136.81;5111573;27;45423;-77
2023/10/05 11:23:58;;;;;;;;;16.00;13.25;;;;;19.37;47.59;102139.28;5099439;27;45350;-78
2023/10/05 11:26:56;;;;;;;;;10.50;6.00;;;;;19.38;47.09;102133.03;5121262;27;45415;-77
2023/10/05 11:29:28;;;;;;;;;5.25;3.75;;;;;19.42;47.03;102117.81;5112861;27;48574;-76
2023/10/05 11:32:01;;;;;;;;;8.00;6.00;;;;;19.49;47.54;102128.13;5114753;27;45230;-76
2023/10/05 11:34:29;;;;;;;;;6.25;4.25;;;;;19.59;47.56;102127.75;5094875;27;45508;-76
2023/10/05 11:36:59;;;;;;;;;11.50;8.50;;;;;19.63;47.24;102111.59;5119203;27;45421;-76
2023/10/05 11:39:27;;;;;;;;;9.25;4.50;;;;;19.69;46.86;102110.50;5101675;27;46322;-76
2023/10/05 11:41:56;;;;;;;;;7.50;4.25;;;;;19.73;46.99;102106.75;5119614;27;45682;-77
2023/10/05 11:44:24;;;;;;;;;7.00;4.00;;;;;19.70;46.73;102104.22;5117274;27;45362;-75
2023/10/05 11:46:53;;;;;;;;;6.50;3.75;;;;;19.75;47.31;102104.94;5108825;27;45247;-75
2023/10/05 11:49:19;;;;;;;;;6.00;5.00;;;;;19.79;47.71;102105.66;5120713;27;45596;-76
2023/10/05 11:51:54;;;;;;;;;5.00;3.75;;;;;19.86;47.38;102101.81;5108016;27;45503;-76
2023/10/05 11:54:19;;;;;;;;;9.00;5.75;;;;;19.96;46.98;102092.50;5117923;27;45304;-76
2023/10/05 11:56:46;;;;;;;;;7.00;5.75;;;;;20.09;47.33;102087.47;5119317;27;59730;-76